Thunder radar more information blitzortung!


Radar de pluja more information rain snow radar


Visita la nostra xarxa de llocs de meteo:

Template documentation
and downloads

And another site



No particular awareness of the weather is required.    There are no Weather-warnings

Pagina Historial Weather Underground text

Diari Resum Abril 16, 2016 Unitats:  Mètric    Imperial   Tant
« Previous Dia
SegĂźent Dia »
Diari Setmana Mensual Anual Personalitzada
  Maxima: Minima: Media:
Temperatura: -17.8 °C -11.2 °C -6.4 °C
Punt de rosada: -17.8 °C -14.8 °C -13.5 °C
Humitat: Humidity % 31 % 45 %
Wind Speed: 0 km/h 0 km/h 18.5 km/h
RĂ fegues de vent: 0 km/h - -
Vent:- - WSW
Pression baro: 0 hPa 34097 hPa -
Precipitacions: 0 mm    
Historical Graphs
 
 
Dades de taula per Abril 16, 2016
Temps Temperatura Punt de rosada Pression baro Vent Wind Speed RĂ fegues de vent Humitat Rainfall Rate (Hourly)
-17.8 °C -17.8 °C 0 hPa Calm     Humidity % 0 mm
00:02 -10.2 °C -13.3 °C 34198.6 hPa NW 6 km/h 6 km/h 69 % 0 mm
10:59 -11.2 °C -13.8 °C 34198.6 hPa WNW 3.1 km/h   73 % 0 mm
11:04 -11.2 °C -13.8 °C 34198.6 hPa WNW 3.1 km/h   73 % 0 mm
11:09 -11.2 °C -13.8 °C 34198.6 hPa WNW 3.1 km/h   73 % 0 mm
11:14 -11.2 °C -13.8 °C 34198.6 hPa WNW 3.1 km/h   73 % 0 mm
11:19 -11.2 °C -13.8 °C 34198.6 hPa WNW 3.1 km/h   73 % 0 mm
11:24 -11.2 °C -13.8 °C 34198.6 hPa WNW 3.1 km/h   73 % 0 mm
11:29 -11.2 °C -13.8 °C 34198.6 hPa WNW 3.1 km/h   73 % 0 mm
11:34 -11.2 °C -13.8 °C 34198.6 hPa WNW 3.1 km/h   73 % 0 mm
11:39 -11.2 °C -13.8 °C 34198.6 hPa WNW 3.1 km/h   73 % 0 mm
11:44 -11.2 °C -13.8 °C 34198.6 hPa WNW 3.1 km/h   73 % 0 mm
11:49 -11.2 °C -13.8 °C 34198.6 hPa WNW 3.1 km/h   73 % 0 mm
11:59 -11.2 °C -13.8 °C 34198.6 hPa WNW 3.1 km/h   73 % 0 mm
12:04 -11.2 °C -13.8 °C 34198.6 hPa WNW 3.1 km/h   73 % 0 mm
12:09 -11.2 °C -13.8 °C 34198.6 hPa WNW 3.1 km/h   73 % 0 mm
12:14 -4.9 °C -12.4 °C 34256.2 hPa WSW 9 km/h 9 km/h 42 % 0 mm
12:19 -4.8 °C -12.6 °C 34256.2 hPa WSW 15 km/h 15 km/h 41 % 0 mm
12:24 -4.9 °C -12.9 °C 34256.2 hPa WSW 23.8 km/h 23.8 km/h 40 % 0 mm
12:29 -5 °C -12.7 °C 34256.2 hPa WNW 11.9 km/h 11.9 km/h 41 % 0 mm
12:34 -4.9 °C -12.7 °C 34256.2 hPa ESE 15 km/h 15 km/h 41 % 0 mm
12:39 -4.6 °C -12.4 °C 34256.2 hPa SW 15 km/h 15 km/h 41 % 0 mm
12:44 -4.6 °C -12.6 °C 34256.2 hPa WSW 15 km/h 15 km/h 40 % 0 mm
12:49 -4.2 °C -12 °C 34222.3 hPa North 9 km/h 9 km/h 41 % 0 mm
12:54 -4.2 °C -12.3 °C 34222.3 hPa WSW 11.9 km/h 11.9 km/h 40 % 0 mm
12:59 -4.2 °C -12.4 °C 34222.3 hPa North 15 km/h 15 km/h 39 % 0 mm
13:04 -4.3 °C -12.6 °C 34222.3 hPa SW 20.9 km/h 20.9 km/h 39 % 0 mm
13:09 -4.3 °C -12.6 °C 34222.3 hPa SW 6 km/h 8 km/h 39 % 0 mm
13:14 -4.2 °C -12.4 °C 34222.3 hPa West 12.7 km/h 12.7 km/h 39 % 0 mm
13:19 -4.2 °C -12.7 °C 34198.6 hPa WSW 17.9 km/h 17.9 km/h 38 % 0 mm
13:24 -4.2 °C -12.7 °C 34198.6 hPa East 11.9 km/h 11.9 km/h 38 % 0 mm
13:29 -4.2 °C -12.7 °C 34198.6 hPa NE 9.3 km/h 9.3 km/h 38 % 0 mm
13:34 -3.8 °C -12.3 °C 34198.6 hPa East 9 km/h 9 km/h 38 % 0 mm
13:39 -3.9 °C -12.8 °C 34198.6 hPa WNW 15 km/h 15 km/h 36 % 0 mm
13:44 -3.9 °C -12.8 °C 34198.6 hPa SSW 19.2 km/h 19.2 km/h 36 % 0 mm
13:49 -3.9 °C -12.8 °C 34198.6 hPa WSW 11.9 km/h 11.9 km/h 36 % 0 mm
13:54 -3.4 °C -12.7 °C 34198.6 hPa WSW 15 km/h 15 km/h 35 % 0 mm
13:59 -3.3 °C -12.8 °C 34198.6 hPa SW 23.8 km/h 23.8 km/h 34 % 0 mm
14:04 -3.4 °C -12.7 °C 34198.6 hPa WSW 9 km/h 9 km/h 35 % 0 mm
14:09 -3.4 °C -13.2 °C 34198.6 hPa SW 15 km/h 15 km/h 33 % 0 mm
14:14 -3.4 °C -12.9 °C 34198.6 hPa West 15 km/h 15 km/h 34 % 0 mm
14:19 -3.3 °C -12.8 °C 34198.6 hPa WSW 35.7 km/h 35.7 km/h 34 % 0 mm
14:24 -3.3 °C -12.8 °C 34198.6 hPa SSW 23.8 km/h 23.8 km/h 34 % 0 mm
14:29 -3.2 °C -12.5 °C 34198.6 hPa SW 20.9 km/h 20.9 km/h 35 % 0 mm
14:34 -3.5 °C -12.5 °C 34198.6 hPa WSW 20.9 km/h 20.9 km/h 36 % 0 mm
14:39 -3.5 °C -12.5 °C 34198.6 hPa SW 20.9 km/h 20.9 km/h 36 % 0 mm
14:44 -3.6 °C -12.6 °C 34198.6 hPa South 20.9 km/h 20.9 km/h 36 % 0 mm
14:50 -3.5 °C -12.5 °C 34164.7 hPa West 26.9 km/h 26.9 km/h 36 % 0 mm
14:55 -3.7 °C -12.7 °C 34164.7 hPa SE 26.9 km/h 26.9 km/h 36 % 0 mm
15:00 -3.6 °C -12.6 °C 34164.7 hPa SW 32.8 km/h 32.8 km/h 36 % 0 mm
15:05 -3.9 °C -12.8 °C 34164.7 hPa SW 23.8 km/h 23.8 km/h 36 % 0 mm
15:10 -3.8 °C -12.8 °C 34164.7 hPa SW 27.2 km/h 27.2 km/h 36 % 0 mm
15:15 -3.9 °C -12.8 °C 34164.7 hPa SSW 15 km/h 15 km/h 36 % 0 mm
15:20 -4.1 °C -12.8 °C 34164.7 hPa West 35.7 km/h 35.7 km/h 37 % 0 mm
15:30 -4.1 °C -12.8 °C 34164.7 hPa SSW 22.5 km/h 22.5 km/h 37 % 0 mm
15:35 -4.2 °C -13.1 °C 34164.7 hPa SSW 23.8 km/h 23.8 km/h 36 % 0 mm
15:40 -4.1 °C -13 °C 34164.7 hPa SW 20.9 km/h 20.9 km/h 36 % 0 mm
15:45 -4.1 °C -13 °C 34164.7 hPa WSW 29.8 km/h 29.8 km/h 36 % 0 mm
15:50 -4.2 °C -13.4 °C 34164.7 hPa SW 32.3 km/h 32.3 km/h 35 % 0 mm
15:55 -4.1 °C -13.3 °C 34164.7 hPa WSW 31.4 km/h 31.4 km/h 35 % 0 mm
16:00 -4.3 °C -13.7 °C 34164.7 hPa SSW 26.9 km/h 26.9 km/h 34 % 0 mm
16:05 -4.2 °C -13.6 °C 34164.7 hPa SSW 29.8 km/h 29.8 km/h 34 % 0 mm
16:10 -4.1 °C -13.7 °C 34164.7 hPa SW 35.4 km/h 35.4 km/h 33 % 0 mm
16:15 -4.2 °C -14.3 °C 34164.7 hPa WSW 32.8 km/h 32.8 km/h 31 % 0 mm
16:20 -4.3 °C -14.1 °C 34164.7 hPa SSW 38.8 km/h 38.8 km/h 32 % 0 mm
16:25 -4.3 °C -14.1 °C 34164.7 hPa SW 35.7 km/h 35.7 km/h 32 % 0 mm
16:30 -4.6 °C -14.6 °C 34130.9 hPa SSW 38.8 km/h 38.8 km/h 31 % 0 mm
16:35 -4.6 °C -14.6 °C 34130.9 hPa SW 44.7 km/h 44.7 km/h 31 % 0 mm
16:40 -4.6 °C -14.4 °C 34130.9 hPa West 23.8 km/h 23.8 km/h 32 % 0 mm
16:50 -4.4 °C -14.2 °C 34130.9 hPa SSW 29.8 km/h 29.8 km/h 32 % 0 mm
16:55 -4.4 °C -14.3 °C 34130.9 hPa SSW 20.9 km/h 20.9 km/h 32 % 0 mm
17:00 -4.4 °C -14.2 °C 34130.9 hPa WSW 15.3 km/h 15.3 km/h 32 % 0 mm
17:05 -4.4 °C -14.2 °C 34130.9 hPa WSW 19.2 km/h 19.2 km/h 32 % 0 mm
17:10 -4.7 °C -14.6 °C 34130.9 hPa SW 41.7 km/h 41.7 km/h 32 % 0 mm
17:15 -4.8 °C -14.6 °C 34130.9 hPa SW 33.6 km/h 33.6 km/h 32 % 0 mm
17:20 -4.7 °C -14.6 °C 34097 hPa SSW 29.8 km/h 29.8 km/h 32 % 0 mm
17:25 -4.7 °C -14.5 °C 34097 hPa WSW 26.9 km/h 26.9 km/h 32 % 0 mm
17:30 -4.9 °C -14.7 °C 34130.9 hPa South 23.8 km/h 23.8 km/h 32 % 0 mm
17:35 -4.9 °C -14.7 °C 34130.9 hPa SW 29.8 km/h 29.8 km/h 32 % 0 mm
17:40 -5.1 °C -14.6 °C 34130.9 hPa WSW 35.7 km/h 35.7 km/h 33 % 0 mm
17:45 -5.2 °C -14.7 °C 34130.9 hPa West 35.7 km/h 35.7 km/h 33 % 0 mm
17:50 -5.4 °C -14.6 °C 34130.9 hPa SW 26.9 km/h 26.9 km/h 34 % 0 mm
17:55 -5.4 °C -14.6 °C 34130.9 hPa SW 39.4 km/h 39.4 km/h 34 % 0 mm
18:00 -5.5 °C -14.7 °C 34130.9 hPa West 38.8 km/h 38.8 km/h 34 % 0 mm
18:05 -5.5 °C -14.7 °C 34130.9 hPa SW 26.9 km/h 26.9 km/h 34 % 0 mm
18:10 -5.6 °C -14.8 °C 34130.9 hPa SW 35.7 km/h 35.7 km/h 34 % 0 mm
18:15 -5.6 °C -14.6 °C 34130.9 hPa SW 32.8 km/h 32.8 km/h 35 % 0 mm
18:20 -5.6 °C -14.8 °C 34130.9 hPa SSW 32.8 km/h 32.8 km/h 34 % 0 mm
18:25 -5.7 °C -14.6 °C 34130.9 hPa WNW 26.9 km/h 26.9 km/h 35 % 0 mm
18:30 -5.5 °C -14.5 °C 34130.9 hPa WSW 22 km/h 22 km/h 35 % 0 mm
18:35 -5.6 °C -14.6 °C 34130.9 hPa SW 29.8 km/h 29.8 km/h 35 % 0 mm
18:45 -5.8 °C -14.5 °C 34130.9 hPa SW 12.7 km/h 12.7 km/h 36 % 0 mm
18:50 -5.8 °C -14.6 °C 34130.9 hPa WSW 15 km/h 15 km/h 36 % 0 mm
18:55 -6 °C -14.5 °C 34130.9 hPa WSW 20.9 km/h 20.9 km/h 37 % 0 mm
19:00 -6.1 °C -14.6 °C 34130.9 hPa SSW 44.7 km/h 44.7 km/h 37 % 0 mm
19:05 -6.3 °C -14.7 °C 34130.9 hPa WSW 32.8 km/h 32.8 km/h 37 % 0 mm
19:10 -6.3 °C -14.6 °C 34130.9 hPa SW 23.8 km/h 23.8 km/h 38 % 0 mm
19:15 -6.3 °C -14.6 °C 34130.9 hPa WSW 20.9 km/h 20.9 km/h 38 % 0 mm
19:20 -6.4 °C -14.6 °C 34130.9 hPa WSW 32.8 km/h 32.8 km/h 38 % 0 mm
19:25 -6.4 °C -14.4 °C 34130.9 hPa WSW 15 km/h 15 km/h 39 % 0 mm
19:30 -6.4 °C -14.3 °C 34130.9 hPa West 23.8 km/h 23.8 km/h 40 % 0 mm
19:40 -6.8 °C -13.5 °C 34130.9 hPa NNW 17.9 km/h 17.9 km/h 46 % 0 mm
19:45 -7 °C -13.3 °C 34130.9 hPa WSW 23.8 km/h 23.8 km/h 48 % 0 mm
19:50 -7.1 °C -13.1 °C 34130.9 hPa WSW 23.8 km/h 23.8 km/h 50 % 0 mm
19:55 -7.2 °C -13.1 °C 34130.9 hPa SSW 23.8 km/h 23.8 km/h 50 % 0 mm
20:00 -7.3 °C -13 °C 34130.9 hPa SW 23.8 km/h 23.8 km/h 51 % 0 mm
20:10 -7.4 °C -13 °C 34130.9 hPa South 17.9 km/h 17.9 km/h 52 % 0 mm
20:15 -7.4 °C -12.9 °C 34130.9 hPa SW 26.9 km/h 26.9 km/h 53 % 0 mm
20:20 -7.5 °C -12.9 °C 34130.9 hPa SW 20.9 km/h 20.9 km/h 53 % 0 mm
20:25 -7.5 °C -12.9 °C 34130.9 hPa SW 15 km/h 16.6 km/h 53 % 0 mm
20:30 -7.6 °C -12.8 °C 34130.9 hPa SW 15 km/h 15 km/h 54 % 0 mm
20:35 -7.6 °C -12.9 °C 34130.9 hPa SSW 32.8 km/h 32.8 km/h 54 % 0 mm
20:40 -7.7 °C -12.9 °C 34130.9 hPa SW 20.9 km/h 20.9 km/h 54 % 0 mm
20:45 -7.7 °C -12.9 °C 34130.9 hPa WSW 27.2 km/h 27.2 km/h 54 % 0 mm
20:50 -7.7 °C -12.9 °C 34130.9 hPa WSW 20.9 km/h 20.9 km/h 54 % 0 mm
20:55 -7.7 °C -12.8 °C 34130.9 hPa SW 26.9 km/h 26.9 km/h 55 % 0 mm
21:00 -7.7 °C -12.7 °C 34164.7 hPa WSW 20.9 km/h 20.9 km/h 56 % 0 mm
21:05 -7.7 °C -12.7 °C 34164.7 hPa WSW 11.9 km/h 11.9 km/h 56 % 0 mm
21:10 -7.8 °C -12.7 °C 34164.7 hPa WSW 17.9 km/h 17.9 km/h 56 % 0 mm
21:15 -7.7 °C -12.7 °C 34198.6 hPa WNW 26.4 km/h 26.4 km/h 56 % 0 mm
21:20 -7.8 °C -12.7 °C 34198.6 hPa SSW 12.7 km/h 12.7 km/h 56 % 0 mm
21:25 -7.8 °C -12.8 °C 34198.6 hPa SSW 19.2 km/h 19.2 km/h 56 % 0 mm
21:30 -7.8 °C -12.8 °C 34198.6 hPa WSW 15 km/h 15 km/h 56 % 0 mm
21:35 -7.8 °C -12.8 °C 34198.6 hPa West 11.9 km/h 11.9 km/h 56 % 0 mm
21:40 -7.8 °C -12.9 °C 34198.6 hPa WSW 11.9 km/h 11.9 km/h 55 % 0 mm
21:45 -7.8 °C -13.1 °C 34198.6 hPa WSW 9 km/h 9 km/h 54 % 0 mm
21:50 -7.9 °C -13.3 °C 34198.6 hPa WNW 15.6 km/h 15.6 km/h 53 % 0 mm
21:55 -7.9 °C -13.3 °C 34198.6 hPa West 9 km/h 9.8 km/h 53 % 0 mm
22:00 -8 °C -13.4 °C 34222.3 hPa SW 15 km/h 15 km/h 53 % 0 mm
22:05 -8.1 °C -13.5 °C 34222.3 hPa West 9 km/h 9 km/h 53 % 0 mm
22:10 -8.2 °C -13.6 °C 34222.3 hPa West 7.7 km/h 12.9 km/h 53 % 0 mm
22:15 -8.2 °C -13.6 °C 34222.3 hPa WSW 5.1 km/h 12.9 km/h 53 % 0 mm
22:20 -8.2 °C -13.6 °C 34222.3 hPa West 9 km/h 9.3 km/h 53 % 0 mm
22:25 -8.3 °C -13.7 °C 34222.3 hPa WSW 2.6 km/h 15.6 km/h 53 % 0 mm
22:30 -8.3 °C -13.7 °C 34235.8 hPa SW 2.6 km/h 12.9 km/h 53 % 0 mm
22:35 -8.4 °C -13.6 °C 34256.2 hPa Calm   7.7 km/h 54 % 0 mm
22:40 -8.4 °C -13.6 °C 34256.2 hPa West 2.6 km/h 18.2 km/h 54 % 0 mm
22:50 -8.4 °C -13.6 °C 34222.3 hPa West 5.1 km/h 20.8 km/h 54 % 0 mm
22:55 -8.4 °C -13.7 °C 34222.3 hPa WNW 5.1 km/h 7.7 km/h 54 % 0 mm
23:00 -8.4 °C -13.7 °C 34235.8 hPa WSW 5.1 km/h 15.6 km/h 54 % 0 mm
23:05 -8.4 °C -13.7 °C 34256.2 hPa West 5.1 km/h 15.6 km/h 54 % 0 mm
23:10 -8.5 °C -13.7 °C 34256.2 hPa West 5.1 km/h 12.9 km/h 54 % 0 mm
23:15 -8.5 °C -13.6 °C 34256.2 hPa WSW 12.9 km/h 15.6 km/h 55 % 0 mm
23:20 -8.5 °C -13.6 °C 34222.3 hPa WNW 7.7 km/h 25.9 km/h 55 % 0 mm
23:25 -8.6 °C -13.6 °C 34222.3 hPa WSW 9 km/h 9 km/h 55 % 0 mm
23:30 -8.6 °C -13.6 °C 34222.3 hPa NW 11.9 km/h 11.9 km/h 55 % 0 mm
23:35 -8.6 °C -13.5 °C 34222.3 hPa WNW 20.9 km/h 20.9 km/h 56 % 0 mm
23:40 -8.6 °C -13.5 °C 34222.3 hPa WSW 9 km/h 9 km/h 56 % 0 mm
23:50 -8.7 °C -13.6 °C 34222.3 hPa West 9 km/h 9 km/h 56 % 0 mm
23:55 -8.7 °C -13.6 °C 34222.3 hPa WNW 10.3 km/h 10.3 km/h 56 % 0 mm
Meteo Sesrovires
Elogis d' Weather Underground - 3.25 mb

Guio original per  Jim McMurry - jmcmurry@mwt.net Adaptat per a la plantilla per  Wim van der Kuil - Leuven-Template.eu

Trobareu la nostra informacio del temps tambe a:

Weather Underground

AWEKAS